createdAt,value
2023-03-24T00:00:39.376Z,13.00
2023-03-24T00:03:08.840Z,12.20
2023-03-24T00:05:37.308Z,12.20
2023-03-24T00:08:10.520Z,12.60
2023-03-24T00:10:40.244Z,12.30
2023-03-24T00:13:08.360Z,12.40
2023-03-24T00:15:36.600Z,13.40
2023-03-24T00:18:10.842Z,11.90
2023-03-24T00:20:41.343Z,13.30
2023-03-24T00:23:09.453Z,12.70
2023-03-24T00:25:40.210Z,13.10
2023-03-24T00:28:11.397Z,13.00
2023-03-24T00:30:41.626Z,13.90
2023-03-24T00:33:10.478Z,13.10
2023-03-24T00:35:40.804Z,13.10
2023-03-24T00:38:10.558Z,13.00
2023-03-24T00:40:58.977Z,12.40
2023-03-24T00:43:28.796Z,13.00
2023-03-24T00:46:02.157Z,13.90
2023-03-24T00:48:32.315Z,13.20
2023-03-24T00:51:03.360Z,12.90
2023-03-24T00:53:31.641Z,14.10
2023-03-24T00:56:00.655Z,13.80
2023-03-24T00:58:29.998Z,13.60
2023-03-24T01:01:01.137Z,12.10
2023-03-24T01:03:30.138Z,12.60
2023-03-24T01:06:03.191Z,13.20
2023-03-24T01:08:32.787Z,12.50
2023-03-24T01:11:01.580Z,13.40
2023-03-24T01:13:35.229Z,12.40
2023-03-24T01:16:03.658Z,12.20
2023-03-24T01:18:32.040Z,13.50
2023-03-24T01:21:01.377Z,13.10
2023-03-24T01:23:30.911Z,13.10
2023-03-24T01:25:59.160Z,13.30
2023-03-24T01:28:27.690Z,12.70
2023-03-24T01:30:56.056Z,12.60
2023-03-24T01:33:24.774Z,13.60
2023-03-24T01:35:53.202Z,12.90
2023-03-24T01:38:22.665Z,12.20
2023-03-24T01:40:52.708Z,12.10
2023-03-24T01:43:24.398Z,12.60
2023-03-24T01:46:18.583Z,12.30
2023-03-24T01:49:01.915Z,13.40
2023-03-24T01:51:41.005Z,12.60
2023-03-24T01:54:18.495Z,12.90
2023-03-24T01:57:23.101Z,11.80
2023-03-24T01:59:53.996Z,13.30
2023-03-24T02:02:44.649Z,12.80
2023-03-24T02:05:13.701Z,12.50
2023-03-24T02:07:50.721Z,12.00
2023-03-24T02:10:21.242Z,13.80
2023-03-24T02:12:49.412Z,13.10
2023-03-24T02:15:19.953Z,12.90
2023-03-24T02:17:57.402Z,13.10
2023-03-24T02:20:50.931Z,13.00
2023-03-24T02:23:40.701Z,12.50
2023-03-24T02:27:06.454Z,12.50
2023-03-24T02:30:33.215Z,12.70
2023-03-24T02:36:05.049Z,11.90
2023-03-24T02:39:10.961Z,12.30
2023-03-24T02:42:02.222Z,12.40
2023-03-24T02:44:40.518Z,12.10
2023-03-24T02:47:35.097Z,11.00
2023-03-24T02:50:09.244Z,11.80
2023-03-24T02:52:43.825Z,12.90
2023-03-24T02:55:18.088Z,12.90
2023-03-24T02:57:51.721Z,11.50
2023-03-24T03:00:52.664Z,13.10
2023-03-24T03:03:53.490Z,13.20
2023-03-24T03:06:27.927Z,11.30
2023-03-24T03:08:56.328Z,12.60
2023-03-24T03:11:24.865Z,12.50
2023-03-24T03:14:32.306Z,11.50
2023-03-24T03:17:34.938Z,12.40
2023-03-24T03:20:13.601Z,11.90
2023-03-24T03:22:47.119Z,12.10
2023-03-24T03:25:17.015Z,12.20
2023-03-24T03:27:47.016Z,11.40
2023-03-24T03:30:21.120Z,12.40
2023-03-24T03:32:56.630Z,10.90
2023-03-24T03:35:35.436Z,11.50
2023-03-24T03:38:08.780Z,11.80
2023-03-24T03:40:55.822Z,11.50
2023-03-24T03:43:27.435Z,12.30
2023-03-24T03:45:56.894Z,11.00
2023-03-24T03:48:30.300Z,11.80
2023-03-24T03:51:10.753Z,10.90
2023-03-24T03:53:45.136Z,11.00
2023-03-24T03:56:13.929Z,12.30
2023-03-24T03:58:51.060Z,12.00
2023-03-24T04:01:25.269Z,11.70
2023-03-24T04:05:05.214Z,11.80
2023-03-24T04:08:27.596Z,10.80
2023-03-24T04:11:16.875Z,11.50
2023-03-24T04:14:46.175Z,10.50
2023-03-24T04:17:38.949Z,11.50
2023-03-24T04:20:26.895Z,11.30
2023-03-24T04:23:04.575Z,10.20
2023-03-24T04:25:45.263Z,10.60
2023-03-24T04:28:38.337Z,10.10
2023-03-24T04:31:17.982Z,10.90
2023-03-24T04:33:50.805Z,10.80
2023-03-24T04:36:55.705Z,11.10
2023-03-24T04:39:44.779Z,10.60
2023-03-24T04:42:19.721Z,10.60
2023-03-24T04:44:51.539Z,10.80
2023-03-24T04:47:44.166Z,9.60
2023-03-24T04:50:40.186Z,10.50
2023-03-24T04:53:12.763Z,10.90
2023-03-24T04:55:50.519Z,11.10
2023-03-24T04:58:29.709Z,11.00
2023-03-24T05:00:58.811Z,12.20
2023-03-24T05:03:27.891Z,11.00
2023-03-24T05:05:57.633Z,10.30
2023-03-24T05:08:27.332Z,10.90
2023-03-24T05:10:55.978Z,11.80
2023-03-24T05:13:26.575Z,10.60
2023-03-24T05:16:00.203Z,11.70
2023-03-24T05:18:43.692Z,11.70
2023-03-24T05:21:15.002Z,10.40
2023-03-24T05:23:43.860Z,10.80
2023-03-24T05:26:12.718Z,10.90
2023-03-24T05:28:53.657Z,11.00
2023-03-24T05:31:21.884Z,11.90
2023-03-24T05:33:58.596Z,10.60
2023-03-24T05:36:26.937Z,12.10
2023-03-24T05:39:04.121Z,11.00
2023-03-24T05:41:42.963Z,11.80
2023-03-24T05:44:11.786Z,10.50
2023-03-24T05:46:41.686Z,10.60
2023-03-24T05:49:09.751Z,10.70
2023-03-24T05:51:44.733Z,10.60
2023-03-24T05:54:13.387Z,10.80
2023-03-24T05:56:43.966Z,10.60
2023-03-24T05:59:34.363Z,11.70
2023-03-24T06:02:32.251Z,12.40
2023-03-24T06:05:10.030Z,12.20
2023-03-24T06:07:47.554Z,13.40
2023-03-24T06:10:18.468Z,12.40
2023-03-24T06:12:57.006Z,11.90
2023-03-24T06:15:28.290Z,12.10
2023-03-24T06:20:36.175Z,12.80
2023-03-24T06:25:45.288Z,12.30
2023-03-24T06:28:21.543Z,13.90
2023-03-24T06:30:59.166Z,12.90
2023-03-24T06:33:35.018Z,12.60
2023-03-24T06:36:04.473Z,12.60
2023-03-24T06:38:34.454Z,12.80
2023-03-24T06:41:03.880Z,13.50
2023-03-24T06:43:32.720Z,12.90
2023-03-24T06:46:01.427Z,13.10
2023-03-24T06:48:30.287Z,12.70
2023-03-24T06:51:04.808Z,13.40
2023-03-24T06:53:35.074Z,13.60
2023-03-24T06:56:03.905Z,12.50
2023-03-24T06:58:38.171Z,13.30
2023-03-24T07:01:08.429Z,13.20
2023-03-24T07:03:42.161Z,13.80
2023-03-24T07:06:31.342Z,13.10
2023-03-24T07:09:05.584Z,14.80
2023-03-24T07:11:38.047Z,16.20
2023-03-24T07:14:06.286Z,16.00
2023-03-24T07:16:37.290Z,16.60
2023-03-24T07:19:25.838Z,17.20
2023-03-24T07:22:22.434Z,16.10
2023-03-24T07:25:14.491Z,17.10
2023-03-24T07:27:54.438Z,16.10
2023-03-24T07:30:37.198Z,16.50
2023-03-24T07:33:06.726Z,16.90
2023-03-24T07:35:35.431Z,14.80
2023-03-24T07:38:06.326Z,17.70
2023-03-24T07:40:37.600Z,16.60
2023-03-24T07:43:12.839Z,16.30
2023-03-24T07:45:46.225Z,16.80
2023-03-24T07:48:16.888Z,16.60
2023-03-24T07:50:45.912Z,16.00
2023-03-24T07:53:54.497Z,13.90
2023-03-24T07:56:45.875Z,14.10
2023-03-24T07:59:14.728Z,13.20
2023-03-24T08:02:04.444Z,13.60
2023-03-24T08:04:56.727Z,13.70
2023-03-24T08:07:40.277Z,14.50
2023-03-24T08:10:14.294Z,12.90
2023-03-24T08:12:46.228Z,12.30
2023-03-24T08:15:14.768Z,13.20
2023-03-24T08:17:43.622Z,14.20
2023-03-24T08:20:21.397Z,12.40
2023-03-24T08:22:54.299Z,12.50
2023-03-24T08:25:24.250Z,13.00
2023-03-24T08:27:55.886Z,12.80
2023-03-24T08:30:28.539Z,12.70
2023-03-24T08:32:59.423Z,12.60
2023-03-24T08:35:33.352Z,12.50
2023-03-24T08:38:06.028Z,11.90
2023-03-24T08:40:39.954Z,12.30
2023-03-24T08:43:11.149Z,12.50
2023-03-24T08:45:44.703Z,12.70
2023-03-24T08:48:13.103Z,12.00
2023-03-24T08:50:41.889Z,12.30
2023-03-24T08:53:12.830Z,12.20
2023-03-24T08:55:43.368Z,12.40
2023-03-24T08:58:21.900Z,12.20
2023-03-24T09:00:53.451Z,12.60
2023-03-24T09:03:23.132Z,13.40
2023-03-24T09:05:57.344Z,12.80
2023-03-24T09:08:28.757Z,13.30
2023-03-24T09:10:56.845Z,13.50
2023-03-24T09:13:32.046Z,13.50
2023-03-24T09:16:15.972Z,14.00
2023-03-24T09:21:14.017Z,14.50
2023-03-24T09:23:42.576Z,14.90
2023-03-24T09:26:15.020Z,15.10
2023-03-24T09:28:45.554Z,16.40
2023-03-24T09:31:18.776Z,15.50
2023-03-24T09:33:47.256Z,15.20
2023-03-24T09:36:18.542Z,15.90
2023-03-24T09:38:51.868Z,14.60
2023-03-24T09:41:31.946Z,16.10
2023-03-24T09:44:08.515Z,13.10
2023-03-24T09:46:47.759Z,14.30
2023-03-24T09:49:24.161Z,12.50
2023-03-24T09:51:56.604Z,12.70
2023-03-24T09:54:33.316Z,13.60
2023-03-24T09:57:02.106Z,13.80
2023-03-24T09:59:35.578Z,13.90
2023-03-24T10:02:14.249Z,11.90
2023-03-24T10:04:42.836Z,12.00
2023-03-24T10:07:33.839Z,12.70
2023-03-24T10:10:02.194Z,13.10
2023-03-24T10:12:33.917Z,12.10
2023-03-24T10:15:10.715Z,11.70
2023-03-24T10:17:51.122Z,14.90
2023-03-24T10:20:41.717Z,15.30
2023-03-24T10:23:41.068Z,13.20
2023-03-24T10:26:36.863Z,13.50
2023-03-24T10:29:20.365Z,13.70
2023-03-24T10:32:00.202Z,11.10
2023-03-24T10:34:33.349Z,11.60
2023-03-24T10:37:03.071Z,11.40
2023-03-24T10:39:41.951Z,11.50
2023-03-24T10:42:35.429Z,11.10
2023-03-24T10:45:04.320Z,11.40
2023-03-24T10:47:34.159Z,10.50
2023-03-24T10:50:12.060Z,11.60
2023-03-24T10:52:46.776Z,9.30
2023-03-24T10:55:17.252Z,9.60
2023-03-24T10:57:54.464Z,9.10
2023-03-24T11:00:35.946Z,9.90
2023-03-24T11:03:09.720Z,9.90
2023-03-24T11:05:39.085Z,9.00
2023-03-24T11:08:15.020Z,9.50
2023-03-24T11:10:49.715Z,10.00
2023-03-24T11:13:20.314Z,10.50
2023-03-24T11:16:14.352Z,12.40
2023-03-24T11:19:00.521Z,9.30
2023-03-24T11:21:29.760Z,9.10
2023-03-24T11:24:03.727Z,8.70
2023-03-24T11:26:34.951Z,8.40
2023-03-24T11:29:16.224Z,8.10
2023-03-24T11:31:54.604Z,9.00
2023-03-24T11:34:46.512Z,9.40
2023-03-24T11:37:17.003Z,8.90
2023-03-24T11:39:45.424Z,8.90
2023-03-24T11:42:20.677Z,8.50
2023-03-24T11:44:51.561Z,9.20
2023-03-24T11:47:32.661Z,9.20
2023-03-24T11:50:12.668Z,9.00
2023-03-24T11:53:04.578Z,9.00
2023-03-24T11:55:42.301Z,10.70
2023-03-24T11:58:48.535Z,9.50
2023-03-24T12:07:08.837Z,7.40
2023-03-24T12:10:00.278Z,6.80
2023-03-24T12:13:13.460Z,7.20
2023-03-24T12:15:57.286Z,6.60
2023-03-24T12:18:52.506Z,7.10
2023-03-24T12:21:43.885Z,7.00
2023-03-24T12:24:33.694Z,7.20
2023-03-24T12:27:01.802Z,7.50
2023-03-24T12:29:39.762Z,8.20
2023-03-24T12:32:35.719Z,6.30
2023-03-24T12:35:28.641Z,5.50
2023-03-24T12:38:07.999Z,4.50
2023-03-24T12:40:42.770Z,5.30
2023-03-24T12:45:55.140Z,4.60
2023-03-24T12:48:52.269Z,4.80
2023-03-24T12:51:29.886Z,4.40
2023-03-24T12:54:05.990Z,4.80
2023-03-24T12:56:41.728Z,5.00
2023-03-24T12:59:13.609Z,4.80
2023-03-24T13:01:47.257Z,5.10
2023-03-24T13:04:22.123Z,4.40
2023-03-24T13:06:57.042Z,4.40
2023-03-24T13:11:58.769Z,4.60
2023-03-24T13:14:31.284Z,4.80
2023-03-24T13:17:05.534Z,4.70
2023-03-24T13:22:02.781Z,5.10
2023-03-24T13:24:32.312Z,4.70
2023-03-24T13:27:09.690Z,4.40
2023-03-24T13:30:22.764Z,4.70
2023-03-24T13:32:53.998Z,4.70
2023-03-24T13:35:40.490Z,5.20
2023-03-24T13:38:16.541Z,4.90
2023-03-24T13:40:47.916Z,4.90
2023-03-24T13:43:24.533Z,5.30
2023-03-24T13:46:02.253Z,4.60
2023-03-24T13:48:37.791Z,4.90
2023-03-24T13:51:17.584Z,6.40
2023-03-24T13:53:56.788Z,4.80
2023-03-24T13:56:31.778Z,4.70
2023-03-24T13:58:59.922Z,5.00
2023-03-24T14:01:45.731Z,5.00
2023-03-24T14:04:20.025Z,4.00
2023-03-24T14:06:52.091Z,4.10
2023-03-24T14:09:29.569Z,4.40
2023-03-24T14:11:58.891Z,4.70
2023-03-24T14:14:34.212Z,4.30
2023-03-24T14:17:12.742Z,5.10
2023-03-24T14:19:44.960Z,5.00
2023-03-24T14:22:23.020Z,5.80
2023-03-24T14:25:02.962Z,5.10
2023-03-24T14:27:42.935Z,4.80
2023-03-24T14:30:11.343Z,5.10
2023-03-24T14:32:46.625Z,5.50
2023-03-24T14:35:26.614Z,6.10
2023-03-24T14:38:03.125Z,6.20
2023-03-24T14:40:46.543Z,5.80
2023-03-24T14:43:28.503Z,5.50
2023-03-24T14:46:27.653Z,5.60
2023-03-24T14:49:29.641Z,6.30
2023-03-24T14:52:18.443Z,6.40
2023-03-24T14:54:54.132Z,6.30
2023-03-24T14:57:25.277Z,6.40
2023-03-24T15:00:15.904Z,5.90
2023-03-24T15:02:51.423Z,7.30
2023-03-24T15:05:31.658Z,6.50
2023-03-24T15:08:19.057Z,7.00
2023-03-24T15:11:04.282Z,7.30
2023-03-24T15:13:42.256Z,6.50
2023-03-24T15:16:10.523Z,6.20
2023-03-24T15:19:02.629Z,6.60
2023-03-24T15:21:38.742Z,6.70
2023-03-24T15:24:22.505Z,6.70
2023-03-24T15:27:09.223Z,6.70
2023-03-24T15:29:43.020Z,6.80
2023-03-24T15:32:19.489Z,7.00
2023-03-24T15:34:51.628Z,7.10
2023-03-24T15:37:24.752Z,6.20
2023-03-24T15:39:59.146Z,7.10
2023-03-24T15:42:39.297Z,6.00
2023-03-24T15:45:35.175Z,7.00
2023-03-24T15:48:24.059Z,6.60
2023-03-24T15:51:00.545Z,6.40
2023-03-24T15:53:33.689Z,6.90
2023-03-24T15:56:26.152Z,7.60
2023-03-24T15:58:56.406Z,7.70
2023-03-24T16:01:31.724Z,7.80
2023-03-24T16:04:00.938Z,7.00
2023-03-24T16:06:37.565Z,10.60
2023-03-24T16:09:09.525Z,8.40
2023-03-24T16:11:41.597Z,7.60
2023-03-24T16:14:23.157Z,8.30
2023-03-24T16:16:56.034Z,7.40
2023-03-24T16:19:26.988Z,8.00
2023-03-24T16:21:55.521Z,7.40
2023-03-24T16:24:24.140Z,9.20
2023-03-24T16:26:52.300Z,8.50
2023-03-24T16:29:25.498Z,7.90
2023-03-24T16:31:56.173Z,9.70
2023-03-24T16:34:24.415Z,9.80
2023-03-24T16:36:54.355Z,8.80
2023-03-24T16:39:27.283Z,10.10
2023-03-24T16:42:00.826Z,10.00
2023-03-24T16:44:29.626Z,9.80
2023-03-24T16:46:57.881Z,9.70
2023-03-24T16:49:26.236Z,8.50
2023-03-24T16:51:54.882Z,9.80
2023-03-24T16:54:25.480Z,9.70
2023-03-24T16:56:54.597Z,8.70
2023-03-24T16:59:22.777Z,10.80
2023-03-24T17:01:52.699Z,8.70
2023-03-24T17:04:25.920Z,10.40
2023-03-24T17:06:58.414Z,10.20
2023-03-24T17:09:28.702Z,11.20
2023-03-24T17:11:57.612Z,10.80
2023-03-24T17:14:32.999Z,9.50
2023-03-24T17:17:02.956Z,10.90
2023-03-24T17:19:31.483Z,11.20
2023-03-24T17:22:08.848Z,10.10
2023-03-24T17:24:39.845Z,10.10
2023-03-24T17:27:13.259Z,10.90
2023-03-24T17:29:42.368Z,11.30
2023-03-24T17:32:11.284Z,9.80
2023-03-24T17:34:45.665Z,10.00
2023-03-24T17:37:14.709Z,10.10
2023-03-24T17:39:43.178Z,10.80
2023-03-24T17:42:14.732Z,9.90
2023-03-24T17:44:44.081Z,10.40
2023-03-24T17:47:12.333Z,10.70
2023-03-24T17:50:00.606Z,9.80
2023-03-24T17:52:32.031Z,9.40
2023-03-24T17:55:00.750Z,9.90
2023-03-24T17:57:29.084Z,10.70
2023-03-24T17:59:57.225Z,11.00
2023-03-24T18:02:25.618Z,10.80
2023-03-24T18:04:54.611Z,11.10
2023-03-24T18:07:24.696Z,10.50
2023-03-24T18:09:52.775Z,10.30
2023-03-24T18:12:21.311Z,10.50
2023-03-24T18:14:52.024Z,10.60
2023-03-24T18:17:20.440Z,10.30
2023-03-24T18:20:00.967Z,9.90
2023-03-24T18:22:32.187Z,10.50
2023-03-24T18:25:07.455Z,9.90
2023-03-24T18:27:36.598Z,10.30
2023-03-24T18:30:07.080Z,10.90
2023-03-24T18:32:36.063Z,10.00
2023-03-24T18:35:05.713Z,10.50
2023-03-24T18:37:34.973Z,10.30
2023-03-24T18:40:09.403Z,10.60
2023-03-24T18:42:38.691Z,13.80
2023-03-24T18:45:08.269Z,10.80
2023-03-24T18:47:37.425Z,10.50
2023-03-24T18:50:06.609Z,10.30
2023-03-24T18:52:35.649Z,10.40
2023-03-24T18:55:03.872Z,9.70
2023-03-24T18:57:33.452Z,11.00
2023-03-24T19:00:02.771Z,10.50
2023-03-24T19:02:33.586Z,10.00
2023-03-24T19:05:02.533Z,10.40
2023-03-24T19:07:32.124Z,9.30
2023-03-24T19:10:00.302Z,9.10
2023-03-24T19:12:28.715Z,9.40
2023-03-24T19:14:57.053Z,9.40
2023-03-24T19:17:25.333Z,9.50
2023-03-24T19:19:58.464Z,8.50
2023-03-24T19:25:10.074Z,14.10
2023-03-24T19:27:49.139Z,9.80
2023-03-24T19:30:18.447Z,9.70
2023-03-24T19:32:48.094Z,9.80
2023-03-24T19:35:21.625Z,10.30
2023-03-24T19:37:50.536Z,9.40
2023-03-24T19:40:23.570Z,9.10
2023-03-24T19:42:52.218Z,9.80
2023-03-24T19:45:20.676Z,9.80
2023-03-24T19:47:49.474Z,10.40
2023-03-24T19:50:18.635Z,9.70
2023-03-24T19:52:51.234Z,9.10
2023-03-24T19:55:19.623Z,10.10
2023-03-24T19:57:47.774Z,10.40
2023-03-24T20:00:16.342Z,9.70
2023-03-24T20:02:44.688Z,9.80
2023-03-24T20:05:14.889Z,10.40
2023-03-24T20:07:43.980Z,10.00
2023-03-24T20:10:12.225Z,10.50
2023-03-24T20:12:46.078Z,9.60
2023-03-24T20:15:15.593Z,10.60
2023-03-24T20:17:44.350Z,9.80
2023-03-24T20:20:15.785Z,9.50
2023-03-24T20:22:48.948Z,11.20
2023-03-24T20:25:18.026Z,11.00
2023-03-24T20:27:47.663Z,10.40
2023-03-24T20:30:17.883Z,10.50
2023-03-24T20:32:47.887Z,10.20
2023-03-24T20:35:18.461Z,11.70
2023-03-24T20:37:46.964Z,11.60
2023-03-24T20:40:15.355Z,10.50
2023-03-24T20:42:44.251Z,12.00
2023-03-24T20:45:12.505Z,12.90
2023-03-24T20:47:44.396Z,13.00
2023-03-24T20:50:12.776Z,11.40
2023-03-24T20:52:47.495Z,12.60
2023-03-24T20:55:36.001Z,12.00
2023-03-24T20:58:08.671Z,12.50
2023-03-24T21:00:46.684Z,12.80
2023-03-24T21:03:16.430Z,11.80
2023-03-24T21:05:46.210Z,12.30
2023-03-24T21:08:14.532Z,12.50
2023-03-24T21:10:45.500Z,12.40
2023-03-24T21:13:17.121Z,12.00
2023-03-24T21:15:45.503Z,11.90
2023-03-24T21:18:17.964Z,11.50
2023-03-24T21:20:55.147Z,11.60
2023-03-24T21:23:23.696Z,11.60
2023-03-24T21:25:53.413Z,12.10
2023-03-24T21:28:21.631Z,11.50
2023-03-24T21:30:53.270Z,11.70
2023-03-24T21:33:21.997Z,11.90
2023-03-24T21:35:50.212Z,12.90
2023-03-24T21:38:23.398Z,11.70
2023-03-24T21:40:58.792Z,11.70
2023-03-24T21:43:30.347Z,11.30
2023-03-24T21:45:58.550Z,10.70
2023-03-24T21:48:27.960Z,11.50
2023-03-24T21:50:56.250Z,10.80
2023-03-24T21:53:26.288Z,11.30
2023-03-24T21:55:56.264Z,11.20
2023-03-24T21:58:24.386Z,11.90
2023-03-24T22:00:52.431Z,11.60
2023-03-24T22:03:21.948Z,12.10
2023-03-24T22:05:50.274Z,11.80
2023-03-24T22:08:22.637Z,11.80
2023-03-24T22:10:54.441Z,12.90
2023-03-24T22:13:28.346Z,13.50
2023-03-24T22:15:59.762Z,12.40
2023-03-24T22:18:29.472Z,12.40
2023-03-24T22:21:07.008Z,12.40
2023-03-24T22:23:39.220Z,13.00
2023-03-24T22:26:15.612Z,12.70
2023-03-24T22:28:45.272Z,12.00
2023-03-24T22:31:16.980Z,12.30
2023-03-24T22:33:45.329Z,13.00
2023-03-24T22:36:14.334Z,12.30
2023-03-24T22:38:42.533Z,13.40
2023-03-24T22:41:12.233Z,12.20
2023-03-24T22:43:42.132Z,11.10
2023-03-24T22:46:10.890Z,11.60
2023-03-24T22:48:40.500Z,12.10
2023-03-24T22:51:09.465Z,11.40
2023-03-24T22:53:42.993Z,12.10
2023-03-24T22:56:12.107Z,11.70
2023-03-24T22:58:40.579Z,11.30
2023-03-24T23:01:10.570Z,12.20
2023-03-24T23:03:38.978Z,12.80
2023-03-24T23:06:15.963Z,11.10
2023-03-24T23:08:44.861Z,12.30
2023-03-24T23:11:13.128Z,13.20
2023-03-24T23:13:44.962Z,12.00
2023-03-24T23:16:13.018Z,13.10
2023-03-24T23:18:41.703Z,12.40
2023-03-24T23:21:12.246Z,12.50
2023-03-24T23:23:41.043Z,11.90
2023-03-24T23:26:26.046Z,12.10
2023-03-24T23:28:55.250Z,12.00
2023-03-24T23:31:27.123Z,13.00
2023-03-24T23:33:57.734Z,13.00
2023-03-24T23:36:29.032Z,13.20
2023-03-24T23:38:59.897Z,13.80
2023-03-24T23:41:28.164Z,14.50
2023-03-24T23:43:56.384Z,13.50
2023-03-24T23:46:24.758Z,17.80
2023-03-24T23:48:53.530Z,15.60
2023-03-24T23:51:24.821Z,14.50
2023-03-24T23:53:53.044Z,14.00
2023-03-24T23:56:23.040Z,13.10
2023-03-24T23:58:52.371Z,13.20
